sensor_id;sensor_type;location;lat;lon;timestamp;P1;durP1;ratioP1;P2;durP2;ratioP2
11933;SDS011;6026;48.784;9.198;2023-06-26T00:01:49;0.60;;;0.60;;
11933;SDS011;6026;48.784;9.198;2023-06-26T00:04:15;0.90;;;0.90;;
11933;SDS011;6026;48.784;9.198;2023-06-26T00:06:41;0.53;;;0.53;;
11933;SDS011;6026;48.784;9.198;2023-06-26T00:09:06;0.70;;;0.70;;
11933;SDS011;6026;48.784;9.198;2023-06-26T00:11:32;0.73;;;0.73;;
11933;SDS011;6026;48.784;9.198;2023-06-26T00:13:58;0.77;;;0.77;;
11933;SDS011;6026;48.784;9.198;2023-06-26T00:16:25;0.77;;;0.77;;
11933;SDS011;6026;48.784;9.198;2023-06-26T00:18:52;0.60;;;0.60;;
11933;SDS011;6026;48.784;9.198;2023-06-26T00:21:18;0.60;;;0.60;;
11933;SDS011;6026;48.784;9.198;2023-06-26T00:23:44;0.70;;;0.70;;
11933;SDS011;6026;48.784;9.198;2023-06-26T00:26:10;0.63;;;0.63;;
11933;SDS011;6026;48.784;9.198;2023-06-26T00:28:36;0.73;;;0.73;;
11933;SDS011;6026;48.784;9.198;2023-06-26T00:31:02;0.70;;;0.70;;
11933;SDS011;6026;48.784;9.198;2023-06-26T00:33:27;0.50;;;0.50;;
11933;SDS011;6026;48.784;9.198;2023-06-26T00:35:53;0.80;;;0.80;;
11933;SDS011;6026;48.784;9.198;2023-06-26T00:38:18;0.80;;;0.80;;
11933;SDS011;6026;48.784;9.198;2023-06-26T00:40:44;0.60;;;0.60;;
11933;SDS011;6026;48.784;9.198;2023-06-26T00:43:09;1.07;;;1.07;;
11933;SDS011;6026;48.784;9.198;2023-06-26T00:45:35;0.70;;;0.70;;
11933;SDS011;6026;48.784;9.198;2023-06-26T00:48:01;0.50;;;0.50;;
11933;SDS011;6026;48.784;9.198;2023-06-26T00:50:27;0.63;;;0.63;;
11933;SDS011;6026;48.784;9.198;2023-06-26T00:52:53;0.63;;;0.63;;
11933;SDS011;6026;48.784;9.198;2023-06-26T00:55:21;0.80;;;0.80;;
11933;SDS011;6026;48.784;9.198;2023-06-26T00:57:47;0.70;;;0.70;;
11933;SDS011;6026;48.784;9.198;2023-06-26T01:00:13;0.67;;;0.67;;
11933;SDS011;6026;48.784;9.198;2023-06-26T01:02:39;0.77;;;0.77;;
11933;SDS011;6026;48.784;9.198;2023-06-26T01:05:05;0.70;;;0.70;;
11933;SDS011;6026;48.784;9.198;2023-06-26T01:07:35;0.77;;;0.77;;
11933;SDS011;6026;48.784;9.198;2023-06-26T01:10:05;0.70;;;0.70;;
11933;SDS011;6026;48.784;9.198;2023-06-26T01:12:32;0.60;;;0.60;;
11933;SDS011;6026;48.784;9.198;2023-06-26T01:14:59;0.80;;;0.80;;
11933;SDS011;6026;48.784;9.198;2023-06-26T01:17:25;0.70;;;0.70;;
11933;SDS011;6026;48.784;9.198;2023-06-26T01:19:56;0.80;;;0.80;;
11933;SDS011;6026;48.784;9.198;2023-06-26T01:22:34;0.70;;;0.70;;
11933;SDS011;6026;48.784;9.198;2023-06-26T01:27:54;0.90;;;0.90;;
11933;SDS011;6026;48.784;9.198;2023-06-26T01:30:21;0.80;;;0.80;;
11933;SDS011;6026;48.784;9.198;2023-06-26T01:32:48;0.70;;;0.70;;
11933;SDS011;6026;48.784;9.198;2023-06-26T01:35:14;0.80;;;0.80;;
11933;SDS011;6026;48.784;9.198;2023-06-26T01:37:40;0.70;;;0.70;;
11933;SDS011;6026;48.784;9.198;2023-06-26T01:40:06;0.70;;;0.70;;
11933;SDS011;6026;48.784;9.198;2023-06-26T01:42:33;0.73;;;0.73;;
11933;SDS011;6026;48.784;9.198;2023-06-26T01:45:01;0.90;;;0.90;;
11933;SDS011;6026;48.784;9.198;2023-06-26T01:47:34;0.70;;;0.70;;
11933;SDS011;6026;48.784;9.198;2023-06-26T01:50:05;1.87;;;1.80;;
11933;SDS011;6026;48.784;9.198;2023-06-26T01:55:30;0.73;;;0.73;;
11933;SDS011;6026;48.784;9.198;2023-06-26T01:58:04;0.87;;;0.87;;
11933;SDS011;6026;48.784;9.198;2023-06-26T02:00:30;0.80;;;0.80;;
11933;SDS011;6026;48.784;9.198;2023-06-26T02:02:57;0.70;;;0.70;;
11933;SDS011;6026;48.784;9.198;2023-06-26T02:05:23;0.77;;;0.77;;
11933;SDS011;6026;48.784;9.198;2023-06-26T02:07:49;0.70;;;0.70;;
11933;SDS011;6026;48.784;9.198;2023-06-26T02:10:15;0.80;;;0.80;;
11933;SDS011;6026;48.784;9.198;2023-06-26T02:12:40;0.80;;;0.80;;
11933;SDS011;6026;48.784;9.198;2023-06-26T02:15:06;0.70;;;0.70;;
11933;SDS011;6026;48.784;9.198;2023-06-26T02:17:32;0.77;;;0.77;;
11933;SDS011;6026;48.784;9.198;2023-06-26T02:19:58;0.90;;;0.90;;
11933;SDS011;6026;48.784;9.198;2023-06-26T02:22:23;0.73;;;0.73;;
11933;SDS011;6026;48.784;9.198;2023-06-26T02:24:49;0.80;;;0.80;;
11933;SDS011;6026;48.784;9.198;2023-06-26T02:27:15;0.80;;;0.80;;
11933;SDS011;6026;48.784;9.198;2023-06-26T02:29:40;0.70;;;0.70;;
11933;SDS011;6026;48.784;9.198;2023-06-26T02:32:06;0.80;;;0.80;;
11933;SDS011;6026;48.784;9.198;2023-06-26T02:34:32;0.90;;;0.90;;
11933;SDS011;6026;48.784;9.198;2023-06-26T02:36:58;0.70;;;0.70;;
11933;SDS011;6026;48.784;9.198;2023-06-26T02:39:25;0.70;;;0.70;;
11933;SDS011;6026;48.784;9.198;2023-06-26T02:41:51;0.83;;;0.83;;
11933;SDS011;6026;48.784;9.198;2023-06-26T02:44:16;0.60;;;0.60;;
11933;SDS011;6026;48.784;9.198;2023-06-26T02:46:42;0.60;;;0.60;;
11933;SDS011;6026;48.784;9.198;2023-06-26T02:49:08;0.70;;;0.70;;
11933;SDS011;6026;48.784;9.198;2023-06-26T02:51:33;0.83;;;0.83;;
11933;SDS011;6026;48.784;9.198;2023-06-26T02:53:59;0.77;;;0.77;;
11933;SDS011;6026;48.784;9.198;2023-06-26T02:56:25;0.70;;;0.70;;
11933;SDS011;6026;48.784;9.198;2023-06-26T02:58:54;0.70;;;0.70;;
11933;SDS011;6026;48.784;9.198;2023-06-26T03:01:20;0.63;;;0.63;;
11933;SDS011;6026;48.784;9.198;2023-06-26T03:03:46;0.70;;;0.70;;
11933;SDS011;6026;48.784;9.198;2023-06-26T03:06:12;0.70;;;0.70;;
11933;SDS011;6026;48.784;9.198;2023-06-26T03:08:38;0.60;;;0.60;;
11933;SDS011;6026;48.784;9.198;2023-06-26T03:11:04;0.60;;;0.60;;
11933;SDS011;6026;48.784;9.198;2023-06-26T03:13:31;0.67;;;0.67;;
11933;SDS011;6026;48.784;9.198;2023-06-26T03:15:57;0.70;;;0.70;;
11933;SDS011;6026;48.784;9.198;2023-06-26T03:18:22;0.80;;;0.80;;
11933;SDS011;6026;48.784;9.198;2023-06-26T03:20:48;0.60;;;0.60;;
11933;SDS011;6026;48.784;9.198;2023-06-26T03:23:14;0.70;;;0.70;;
11933;SDS011;6026;48.784;9.198;2023-06-26T03:25:39;0.63;;;0.63;;
11933;SDS011;6026;48.784;9.198;2023-06-26T03:28:05;0.67;;;0.67;;
11933;SDS011;6026;48.784;9.198;2023-06-26T03:30:31;0.80;;;0.80;;
11933;SDS011;6026;48.784;9.198;2023-06-26T03:32:56;0.80;;;0.80;;
11933;SDS011;6026;48.784;9.198;2023-06-26T03:35:22;0.80;;;0.80;;
11933;SDS011;6026;48.784;9.198;2023-06-26T03:37:48;0.90;;;0.90;;
11933;SDS011;6026;48.784;9.198;2023-06-26T03:40:14;0.67;;;0.67;;
11933;SDS011;6026;48.784;9.198;2023-06-26T03:42:39;0.70;;;0.70;;
11933;SDS011;6026;48.784;9.198;2023-06-26T03:45:05;0.70;;;0.70;;
11933;SDS011;6026;48.784;9.198;2023-06-26T03:47:31;0.90;;;0.90;;
11933;SDS011;6026;48.784;9.198;2023-06-26T03:49:56;0.70;;;0.70;;
11933;SDS011;6026;48.784;9.198;2023-06-26T03:52:22;0.70;;;0.70;;
11933;SDS011;6026;48.784;9.198;2023-06-26T03:54:48;0.77;;;0.77;;
11933;SDS011;6026;48.784;9.198;2023-06-26T03:57:14;0.90;;;0.90;;
11933;SDS011;6026;48.784;9.198;2023-06-26T03:59:39;0.93;;;0.93;;
11933;SDS011;6026;48.784;9.198;2023-06-26T04:02:05;0.90;;;0.90;;
11933;SDS011;6026;48.784;9.198;2023-06-26T04:04:30;0.90;;;0.90;;
11933;SDS011;6026;48.784;9.198;2023-06-26T04:06:56;0.80;;;0.80;;
11933;SDS011;6026;48.784;9.198;2023-06-26T04:09:24;0.70;;;0.70;;
11933;SDS011;6026;48.784;9.198;2023-06-26T04:11:50;1.00;;;1.00;;
11933;SDS011;6026;48.784;9.198;2023-06-26T04:14:15;0.80;;;0.80;;
11933;SDS011;6026;48.784;9.198;2023-06-26T04:16:41;0.50;;;0.50;;
11933;SDS011;6026;48.784;9.198;2023-06-26T04:19:07;0.70;;;0.70;;
11933;SDS011;6026;48.784;9.198;2023-06-26T04:21:34;0.80;;;0.80;;
11933;SDS011;6026;48.784;9.198;2023-06-26T04:24:00;0.97;;;0.97;;
11933;SDS011;6026;48.784;9.198;2023-06-26T04:26:26;0.60;;;0.60;;
11933;SDS011;6026;48.784;9.198;2023-06-26T04:28:52;0.80;;;0.80;;
11933;SDS011;6026;48.784;9.198;2023-06-26T04:31:18;0.70;;;0.70;;
11933;SDS011;6026;48.784;9.198;2023-06-26T04:33:44;0.73;;;0.73;;
11933;SDS011;6026;48.784;9.198;2023-06-26T04:36:09;0.87;;;0.87;;
11933;SDS011;6026;48.784;9.198;2023-06-26T04:38:36;0.80;;;0.80;;
11933;SDS011;6026;48.784;9.198;2023-06-26T04:41:01;0.70;;;0.70;;
11933;SDS011;6026;48.784;9.198;2023-06-26T04:43:27;0.83;;;0.83;;
11933;SDS011;6026;48.784;9.198;2023-06-26T04:45:53;0.70;;;0.70;;
11933;SDS011;6026;48.784;9.198;2023-06-26T04:48:19;0.77;;;0.77;;
11933;SDS011;6026;48.784;9.198;2023-06-26T04:50:45;0.80;;;0.80;;
11933;SDS011;6026;48.784;9.198;2023-06-26T04:53:19;0.70;;;0.70;;
11933;SDS011;6026;48.784;9.198;2023-06-26T04:55:48;0.73;;;0.73;;
11933;SDS011;6026;48.784;9.198;2023-06-26T04:58:14;0.60;;;0.60;;
11933;SDS011;6026;48.784;9.198;2023-06-26T05:00:40;0.67;;;0.67;;
11933;SDS011;6026;48.784;9.198;2023-06-26T05:03:08;0.87;;;0.87;;
11933;SDS011;6026;48.784;9.198;2023-06-26T05:05:37;0.70;;;0.70;;
11933;SDS011;6026;48.784;9.198;2023-06-26T05:08:20;0.90;;;0.90;;
11933;SDS011;6026;48.784;9.198;2023-06-26T05:10:47;0.60;;;0.60;;
11933;SDS011;6026;48.784;9.198;2023-06-26T05:13:13;0.90;;;0.90;;
11933;SDS011;6026;48.784;9.198;2023-06-26T05:15:42;0.73;;;0.73;;
11933;SDS011;6026;48.784;9.198;2023-06-26T05:18:11;1.00;;;1.00;;
11933;SDS011;6026;48.784;9.198;2023-06-26T05:20:37;0.90;;;0.90;;
11933;SDS011;6026;48.784;9.198;2023-06-26T05:23:03;0.60;;;0.60;;
11933;SDS011;6026;48.784;9.198;2023-06-26T05:25:29;0.73;;;0.73;;
11933;SDS011;6026;48.784;9.198;2023-06-26T05:27:56;0.77;;;0.77;;
11933;SDS011;6026;48.784;9.198;2023-06-26T05:30:23;0.70;;;0.70;;
11933;SDS011;6026;48.784;9.198;2023-06-26T05:32:52;0.50;;;0.50;;
11933;SDS011;6026;48.784;9.198;2023-06-26T05:35:22;0.70;;;0.70;;
11933;SDS011;6026;48.784;9.198;2023-06-26T05:37:48;0.70;;;0.70;;
11933;SDS011;6026;48.784;9.198;2023-06-26T05:40:15;0.53;;;0.53;;
11933;SDS011;6026;48.784;9.198;2023-06-26T05:42:42;0.60;;;0.60;;
11933;SDS011;6026;48.784;9.198;2023-06-26T05:45:09;0.70;;;0.70;;
11933;SDS011;6026;48.784;9.198;2023-06-26T05:47:35;0.70;;;0.70;;
11933;SDS011;6026;48.784;9.198;2023-06-26T05:50:00;0.90;;;0.90;;
11933;SDS011;6026;48.784;9.198;2023-06-26T05:52:26;0.77;;;0.77;;
11933;SDS011;6026;48.784;9.198;2023-06-26T05:54:52;0.80;;;0.80;;
11933;SDS011;6026;48.784;9.198;2023-06-26T05:57:18;0.80;;;0.80;;
11933;SDS011;6026;48.784;9.198;2023-06-26T05:59:44;0.50;;;0.50;;
11933;SDS011;6026;48.784;9.198;2023-06-26T06:02:11;0.80;;;0.80;;
11933;SDS011;6026;48.784;9.198;2023-06-26T06:04:37;0.70;;;0.70;;
11933;SDS011;6026;48.784;9.198;2023-06-26T06:07:03;0.63;;;0.63;;
11933;SDS011;6026;48.784;9.198;2023-06-26T06:09:29;0.90;;;0.90;;
11933;SDS011;6026;48.784;9.198;2023-06-26T06:11:54;0.50;;;0.50;;
11933;SDS011;6026;48.784;9.198;2023-06-26T06:14:20;0.70;;;0.70;;
11933;SDS011;6026;48.784;9.198;2023-06-26T06:16:45;0.50;;;0.50;;
11933;SDS011;6026;48.784;9.198;2023-06-26T06:19:11;0.47;;;0.47;;
11933;SDS011;6026;48.784;9.198;2023-06-26T06:21:38;0.90;;;0.90;;
11933;SDS011;6026;48.784;9.198;2023-06-26T06:24:04;0.70;;;0.70;;
11933;SDS011;6026;48.784;9.198;2023-06-26T06:26:31;0.70;;;0.70;;
11933;SDS011;6026;48.784;9.198;2023-06-26T06:28:57;0.75;;;0.75;;
11933;SDS011;6026;48.784;9.198;2023-06-26T06:31:22;0.90;;;0.90;;
11933;SDS011;6026;48.784;9.198;2023-06-26T06:33:48;0.93;;;0.93;;
11933;SDS011;6026;48.784;9.198;2023-06-26T06:36:13;1.10;;;1.10;;
11933;SDS011;6026;48.784;9.198;2023-06-26T06:38:42;1.20;;;1.20;;
11933;SDS011;6026;48.784;9.198;2023-06-26T06:41:08;1.20;;;1.20;;
11933;SDS011;6026;48.784;9.198;2023-06-26T06:43:34;1.20;;;1.20;;
11933;SDS011;6026;48.784;9.198;2023-06-26T06:46:00;1.30;;;1.30;;
11933;SDS011;6026;48.784;9.198;2023-06-26T06:48:26;1.50;;;1.50;;
11933;SDS011;6026;48.784;9.198;2023-06-26T06:50:52;1.60;;;1.60;;
11933;SDS011;6026;48.784;9.198;2023-06-26T06:53:17;1.75;;;1.70;;
11933;SDS011;6026;48.784;9.198;2023-06-26T06:55:45;1.88;;;1.77;;
11933;SDS011;6026;48.784;9.198;2023-06-26T06:58:11;2.00;;;1.90;;
11933;SDS011;6026;48.784;9.198;2023-06-26T07:00:37;1.90;;;1.80;;
11933;SDS011;6026;48.784;9.198;2023-06-26T07:03:02;2.20;;;2.10;;
11933;SDS011;6026;48.784;9.198;2023-06-26T07:05:28;2.17;;;2.08;;
11933;SDS011;6026;48.784;9.198;2023-06-26T07:07:54;2.20;;;2.10;;
11933;SDS011;6026;48.784;9.198;2023-06-26T07:10:20;2.30;;;2.20;;
11933;SDS011;6026;48.784;9.198;2023-06-26T07:12:46;2.40;;;2.30;;
11933;SDS011;6026;48.784;9.198;2023-06-26T07:15:12;2.50;;;2.40;;
11933;SDS011;6026;48.784;9.198;2023-06-26T07:17:37;2.50;;;2.40;;
11933;SDS011;6026;48.784;9.198;2023-06-26T07:20:04;2.70;;;2.60;;
11933;SDS011;6026;48.784;9.198;2023-06-26T07:22:32;2.60;;;2.50;;
11933;SDS011;6026;48.784;9.198;2023-06-26T07:24:57;2.60;;;2.50;;
11933;SDS011;6026;48.784;9.198;2023-06-26T07:27:23;2.90;;;2.70;;
11933;SDS011;6026;48.784;9.198;2023-06-26T07:29:48;3.20;;;3.00;;
11933;SDS011;6026;48.784;9.198;2023-06-26T07:32:14;3.17;;;2.97;;
11933;SDS011;6026;48.784;9.198;2023-06-26T07:34:40;3.15;;;2.95;;
11933;SDS011;6026;48.784;9.198;2023-06-26T07:37:05;3.20;;;3.00;;
11933;SDS011;6026;48.784;9.198;2023-06-26T07:39:31;3.40;;;3.20;;
11933;SDS011;6026;48.784;9.198;2023-06-26T07:41:56;3.53;;;3.33;;
11933;SDS011;6026;48.784;9.198;2023-06-26T07:44:24;3.20;;;3.00;;
11933;SDS011;6026;48.784;9.198;2023-06-26T07:46:50;3.30;;;3.10;;
11933;SDS011;6026;48.784;9.198;2023-06-26T07:49:15;3.30;;;3.10;;
11933;SDS011;6026;48.784;9.198;2023-06-26T07:51:41;3.20;;;3.00;;
11933;SDS011;6026;48.784;9.198;2023-06-26T07:54:07;3.30;;;3.10;;
11933;SDS011;6026;48.784;9.198;2023-06-26T07:56:35;3.53;;;3.33;;
11933;SDS011;6026;48.784;9.198;2023-06-26T07:59:28;3.47;;;3.28;;
11933;SDS011;6026;48.784;9.198;2023-06-26T08:01:55;3.67;;;3.47;;
11933;SDS011;6026;48.784;9.198;2023-06-26T08:04:22;3.55;;;3.35;;
11933;SDS011;6026;48.784;9.198;2023-06-26T08:06:53;3.90;;;3.70;;
11933;SDS011;6026;48.784;9.198;2023-06-26T08:09:20;3.90;;;3.70;;
11933;SDS011;6026;48.784;9.198;2023-06-26T08:11:47;3.90;;;3.70;;
11933;SDS011;6026;48.784;9.198;2023-06-26T08:14:12;4.00;;;3.80;;
11933;SDS011;6026;48.784;9.198;2023-06-26T08:16:39;4.15;;;3.95;;
11933;SDS011;6026;48.784;9.198;2023-06-26T08:19:05;4.00;;;3.80;;
11933;SDS011;6026;48.784;9.198;2023-06-26T08:21:30;4.07;;;3.80;;
11933;SDS011;6026;48.784;9.198;2023-06-26T08:23:56;4.00;;;3.80;;
11933;SDS011;6026;48.784;9.198;2023-06-26T08:26:21;4.00;;;3.80;;
11933;SDS011;6026;48.784;9.198;2023-06-26T08:28:47;4.10;;;3.90;;
11933;SDS011;6026;48.784;9.198;2023-06-26T08:31:12;4.28;;;3.97;;
11933;SDS011;6026;48.784;9.198;2023-06-26T08:33:38;4.40;;;4.10;;
11933;SDS011;6026;48.784;9.198;2023-06-26T08:36:03;4.30;;;4.00;;
11933;SDS011;6026;48.784;9.198;2023-06-26T08:38:29;4.53;;;4.22;;
11933;SDS011;6026;48.784;9.198;2023-06-26T08:40:55;4.32;;;4.03;;
11933;SDS011;6026;48.784;9.198;2023-06-26T08:43:20;4.70;;;4.40;;
11933;SDS011;6026;48.784;9.198;2023-06-26T08:45:47;4.60;;;4.30;;
11933;SDS011;6026;48.784;9.198;2023-06-26T08:48:16;4.30;;;4.00;;
11933;SDS011;6026;48.784;9.198;2023-06-26T08:50:43;4.70;;;4.40;;
11933;SDS011;6026;48.784;9.198;2023-06-26T08:56:08;4.60;;;4.30;;
11933;SDS011;6026;48.784;9.198;2023-06-26T08:58:34;5.15;;;4.85;;
11933;SDS011;6026;48.784;9.198;2023-06-26T09:01:02;4.78;;;4.47;;
11933;SDS011;6026;48.784;9.198;2023-06-26T09:03:29;4.80;;;4.50;;
11933;SDS011;6026;48.784;9.198;2023-06-26T09:05:55;4.97;;;4.68;;
11933;SDS011;6026;48.784;9.198;2023-06-26T09:08:21;5.03;;;4.72;;
11933;SDS011;6026;48.784;9.198;2023-06-26T09:10:46;5.30;;;5.00;;
11933;SDS011;6026;48.784;9.198;2023-06-26T09:13:12;5.03;;;4.72;;
11933;SDS011;6026;48.784;9.198;2023-06-26T09:15:38;5.22;;;4.93;;
11933;SDS011;6026;48.784;9.198;2023-06-26T09:18:07;5.10;;;4.80;;
11933;SDS011;6026;48.784;9.198;2023-06-26T09:20:33;5.30;;;5.00;;
11933;SDS011;6026;48.784;9.198;2023-06-26T09:22:59;5.03;;;4.72;;
11933;SDS011;6026;48.784;9.198;2023-06-26T09:25:25;5.28;;;4.97;;
11933;SDS011;6026;48.784;9.198;2023-06-26T09:27:52;5.28;;;4.97;;
11933;SDS011;6026;48.784;9.198;2023-06-26T09:30:18;4.90;;;4.60;;
11933;SDS011;6026;48.784;9.198;2023-06-26T09:32:44;4.93;;;4.63;;
11933;SDS011;6026;48.784;9.198;2023-06-26T09:35:10;3.90;;;3.70;;
11933;SDS011;6026;48.784;9.198;2023-06-26T09:37:36;3.20;;;3.00;;
11933;SDS011;6026;48.784;9.198;2023-06-26T09:40:02;3.20;;;3.00;;
11933;SDS011;6026;48.784;9.198;2023-06-26T09:42:29;2.80;;;2.70;;
11933;SDS011;6026;48.784;9.198;2023-06-26T09:44:55;2.50;;;2.40;;
11933;SDS011;6026;48.784;9.198;2023-06-26T09:47:20;2.70;;;2.60;;
11933;SDS011;6026;48.784;9.198;2023-06-26T09:49:46;2.40;;;2.30;;
11933;SDS011;6026;48.784;9.198;2023-06-26T09:52:15;2.53;;;2.42;;
11933;SDS011;6026;48.784;9.198;2023-06-26T09:54:42;2.30;;;2.20;;
11933;SDS011;6026;48.784;9.198;2023-06-26T09:57:10;2.20;;;2.10;;
11933;SDS011;6026;48.784;9.198;2023-06-26T09:59:43;2.10;;;2.00;;
11933;SDS011;6026;48.784;9.198;2023-06-26T10:02:12;2.00;;;1.90;;
11933;SDS011;6026;48.784;9.198;2023-06-26T10:04:38;2.00;;;1.90;;
11933;SDS011;6026;48.784;9.198;2023-06-26T10:07:08;1.90;;;1.80;;
11933;SDS011;6026;48.784;9.198;2023-06-26T10:09:43;2.00;;;1.90;;
11933;SDS011;6026;48.784;9.198;2023-06-26T10:12:16;2.05;;;1.95;;
11933;SDS011;6026;48.784;9.198;2023-06-26T10:14:44;2.00;;;1.90;;
11933;SDS011;6026;48.784;9.198;2023-06-26T10:17:11;2.10;;;2.00;;
11933;SDS011;6026;48.784;9.198;2023-06-26T10:19:41;2.17;;;2.08;;
11933;SDS011;6026;48.784;9.198;2023-06-26T10:22:09;2.30;;;2.20;;
11933;SDS011;6026;48.784;9.198;2023-06-26T10:24:36;2.20;;;2.10;;
11933;SDS011;6026;48.784;9.198;2023-06-26T10:27:38;2.20;;;2.10;;
11933;SDS011;6026;48.784;9.198;2023-06-26T10:30:00;2.00;;;1.90;;
11933;SDS011;6026;48.784;9.198;2023-06-26T10:32:29;1.90;;;1.80;;
11933;SDS011;6026;48.784;9.198;2023-06-26T10:34:55;1.90;;;1.80;;
11933;SDS011;6026;48.784;9.198;2023-06-26T10:37:37;1.60;;;1.60;;
11933;SDS011;6026;48.784;9.198;2023-06-26T10:40:21;1.40;;;1.40;;
11933;SDS011;6026;48.784;9.198;2023-06-26T10:42:50;1.30;;;1.30;;
11933;SDS011;6026;48.784;9.198;2023-06-26T10:45:17;1.30;;;1.30;;
11933;SDS011;6026;48.784;9.198;2023-06-26T10:47:48;1.30;;;1.30;;
11933;SDS011;6026;48.784;9.198;2023-06-26T10:53:08;1.20;;;1.20;;
11933;SDS011;6026;48.784;9.198;2023-06-26T10:55:34;1.30;;;1.30;;
11933;SDS011;6026;48.784;9.198;2023-06-26T10:58:01;1.20;;;1.20;;
11933;SDS011;6026;48.784;9.198;2023-06-26T11:00:27;1.30;;;1.30;;
11933;SDS011;6026;48.784;9.198;2023-06-26T11:02:53;3.55;;;3.22;;
11933;SDS011;6026;48.784;9.198;2023-06-26T11:05:29;1.50;;;1.50;;
11933;SDS011;6026;48.784;9.198;2023-06-26T11:10:52;1.50;;;1.50;;
11933;SDS011;6026;48.784;9.198;2023-06-26T11:13:18;1.55;;;1.55;;
11933;SDS011;6026;48.784;9.198;2023-06-26T11:15:45;1.60;;;1.60;;
11933;SDS011;6026;48.784;9.198;2023-06-26T11:18:11;1.50;;;1.50;;
11933;SDS011;6026;48.784;9.198;2023-06-26T11:20:38;1.50;;;1.50;;
11933;SDS011;6026;48.784;9.198;2023-06-26T11:23:03;1.50;;;1.50;;
11933;SDS011;6026;48.784;9.198;2023-06-26T11:25:33;1.40;;;1.40;;
11933;SDS011;6026;48.784;9.198;2023-06-26T11:28:00;1.40;;;1.40;;
11933;SDS011;6026;48.784;9.198;2023-06-26T11:30:26;1.40;;;1.40;;
11933;SDS011;6026;48.784;9.198;2023-06-26T11:32:52;1.40;;;1.40;;
11933;SDS011;6026;48.784;9.198;2023-06-26T11:35:24;1.30;;;1.30;;
11933;SDS011;6026;48.784;9.198;2023-06-26T11:37:59;1.30;;;1.30;;
11933;SDS011;6026;48.784;9.198;2023-06-26T11:40:29;1.40;;;1.40;;
11933;SDS011;6026;48.784;9.198;2023-06-26T11:42:59;1.40;;;1.40;;
11933;SDS011;6026;48.784;9.198;2023-06-26T11:45:33;1.40;;;1.40;;
11933;SDS011;6026;48.784;9.198;2023-06-26T11:47:59;1.40;;;1.40;;
11933;SDS011;6026;48.784;9.198;2023-06-26T11:50:26;1.40;;;1.40;;
11933;SDS011;6026;48.784;9.198;2023-06-26T11:52:52;1.40;;;1.40;;
11933;SDS011;6026;48.784;9.198;2023-06-26T11:55:19;1.30;;;1.30;;
11933;SDS011;6026;48.784;9.198;2023-06-26T11:57:49;1.38;;;1.38;;
11933;SDS011;6026;48.784;9.198;2023-06-26T12:00:16;1.40;;;1.40;;
11933;SDS011;6026;48.784;9.198;2023-06-26T12:02:42;1.40;;;1.40;;
11933;SDS011;6026;48.784;9.198;2023-06-26T12:05:10;1.38;;;1.38;;
11933;SDS011;6026;48.784;9.198;2023-06-26T12:07:36;1.30;;;1.30;;
11933;SDS011;6026;48.784;9.198;2023-06-26T12:10:02;1.30;;;1.30;;
11933;SDS011;6026;48.784;9.198;2023-06-26T12:12:30;1.20;;;1.20;;
11933;SDS011;6026;48.784;9.198;2023-06-26T12:14:56;1.20;;;1.20;;
11933;SDS011;6026;48.784;9.198;2023-06-26T12:17:23;1.20;;;1.20;;
11933;SDS011;6026;48.784;9.198;2023-06-26T12:19:51;1.20;;;1.20;;
11933;SDS011;6026;48.784;9.198;2023-06-26T12:22:17;1.20;;;1.20;;
11933;SDS011;6026;48.784;9.198;2023-06-26T12:24:44;1.20;;;1.20;;
11933;SDS011;6026;48.784;9.198;2023-06-26T12:27:12;1.15;;;1.15;;
11933;SDS011;6026;48.784;9.198;2023-06-26T12:29:39;1.20;;;1.20;;
11933;SDS011;6026;48.784;9.198;2023-06-26T12:32:17;1.20;;;1.20;;
11933;SDS011;6026;48.784;9.198;2023-06-26T12:34:46;1.20;;;1.20;;
11933;SDS011;6026;48.784;9.198;2023-06-26T12:37:13;1.20;;;1.20;;
11933;SDS011;6026;48.784;9.198;2023-06-26T12:39:55;1.30;;;1.30;;
11933;SDS011;6026;48.784;9.198;2023-06-26T12:42:23;1.20;;;1.20;;
11933;SDS011;6026;48.784;9.198;2023-06-26T12:44:50;1.20;;;1.20;;
11933;SDS011;6026;48.784;9.198;2023-06-26T12:47:17;1.20;;;1.20;;
11933;SDS011;6026;48.784;9.198;2023-06-26T12:49:44;1.30;;;1.30;;
11933;SDS011;6026;48.784;9.198;2023-06-26T12:52:11;1.30;;;1.30;;
11933;SDS011;6026;48.784;9.198;2023-06-26T12:54:38;1.30;;;1.30;;
11933;SDS011;6026;48.784;9.198;2023-06-26T12:57:05;1.20;;;1.20;;
11933;SDS011;6026;48.784;9.198;2023-06-26T12:59:32;1.20;;;1.20;;
11933;SDS011;6026;48.784;9.198;2023-06-26T13:01:59;1.20;;;1.20;;
11933;SDS011;6026;48.784;9.198;2023-06-26T13:04:25;1.30;;;1.30;;
11933;SDS011;6026;48.784;9.198;2023-06-26T13:06:51;1.20;;;1.20;;
11933;SDS011;6026;48.784;9.198;2023-06-26T13:09:19;1.20;;;1.20;;
11933;SDS011;6026;48.784;9.198;2023-06-26T13:11:45;1.20;;;1.20;;
11933;SDS011;6026;48.784;9.198;2023-06-26T13:14:11;1.17;;;1.17;;
11933;SDS011;6026;48.784;9.198;2023-06-26T13:16:36;1.25;;;1.25;;
11933;SDS011;6026;48.784;9.198;2023-06-26T13:19:02;1.17;;;1.17;;
11933;SDS011;6026;48.784;9.198;2023-06-26T13:21:28;1.10;;;1.10;;
11933;SDS011;6026;48.784;9.198;2023-06-26T13:23:54;1.10;;;1.10;;
11933;SDS011;6026;48.784;9.198;2023-06-26T13:26:20;1.10;;;1.10;;
11933;SDS011;6026;48.784;9.198;2023-06-26T13:28:46;3.15;;;2.95;;
11933;SDS011;6026;48.784;9.198;2023-06-26T13:31:13;1.20;;;1.20;;
11933;SDS011;6026;48.784;9.198;2023-06-26T13:33:38;1.10;;;1.10;;
11933;SDS011;6026;48.784;9.198;2023-06-26T13:36:04;1.20;;;1.20;;
11933;SDS011;6026;48.784;9.198;2023-06-26T13:38:32;1.20;;;1.20;;
11933;SDS011;6026;48.784;9.198;2023-06-26T13:40:58;1.10;;;1.10;;
11933;SDS011;6026;48.784;9.198;2023-06-26T13:43:25;1.20;;;1.20;;
11933;SDS011;6026;48.784;9.198;2023-06-26T13:45:52;1.20;;;1.20;;
11933;SDS011;6026;48.784;9.198;2023-06-26T13:48:18;1.15;;;1.15;;
11933;SDS011;6026;48.784;9.198;2023-06-26T13:50:44;1.80;;;1.75;;
11933;SDS011;6026;48.784;9.198;2023-06-26T13:53:10;1.20;;;1.20;;
11933;SDS011;6026;48.784;9.198;2023-06-26T13:55:36;1.20;;;1.20;;
11933;SDS011;6026;48.784;9.198;2023-06-26T13:58:03;1.13;;;1.13;;
11933;SDS011;6026;48.784;9.198;2023-06-26T14:00:32;1.20;;;1.20;;
11933;SDS011;6026;48.784;9.198;2023-06-26T14:03:02;1.20;;;1.20;;
11933;SDS011;6026;48.784;9.198;2023-06-26T14:05:32;1.20;;;1.20;;
11933;SDS011;6026;48.784;9.198;2023-06-26T14:07:58;1.15;;;1.15;;
11933;SDS011;6026;48.784;9.198;2023-06-26T14:10:23;1.10;;;1.10;;
11933;SDS011;6026;48.784;9.198;2023-06-26T14:12:49;1.17;;;1.17;;
11933;SDS011;6026;48.784;9.198;2023-06-26T14:15:15;1.20;;;1.20;;
11933;SDS011;6026;48.784;9.198;2023-06-26T14:17:41;1.10;;;1.10;;
11933;SDS011;6026;48.784;9.198;2023-06-26T14:20:07;1.20;;;1.20;;
11933;SDS011;6026;48.784;9.198;2023-06-26T14:22:41;1.17;;;1.17;;
11933;SDS011;6026;48.784;9.198;2023-06-26T14:25:08;1.10;;;1.10;;
11933;SDS011;6026;48.784;9.198;2023-06-26T14:27:35;1.20;;;1.20;;
11933;SDS011;6026;48.784;9.198;2023-06-26T14:30:02;1.13;;;1.13;;
11933;SDS011;6026;48.784;9.198;2023-06-26T14:32:31;1.20;;;1.20;;
11933;SDS011;6026;48.784;9.198;2023-06-26T14:34:56;1.15;;;1.15;;
11933;SDS011;6026;48.784;9.198;2023-06-26T14:37:22;1.20;;;1.20;;
11933;SDS011;6026;48.784;9.198;2023-06-26T14:39:49;1.00;;;1.00;;
11933;SDS011;6026;48.784;9.198;2023-06-26T14:42:14;1.15;;;1.15;;
11933;SDS011;6026;48.784;9.198;2023-06-26T14:44:40;1.13;;;1.13;;
11933;SDS011;6026;48.784;9.198;2023-06-26T14:47:06;1.20;;;1.20;;
11933;SDS011;6026;48.784;9.198;2023-06-26T14:49:31;1.17;;;1.17;;
11933;SDS011;6026;48.784;9.198;2023-06-26T14:51:57;1.02;;;1.02;;
11933;SDS011;6026;48.784;9.198;2023-06-26T14:54:22;1.10;;;1.10;;
11933;SDS011;6026;48.784;9.198;2023-06-26T14:56:48;1.10;;;1.10;;
11933;SDS011;6026;48.784;9.198;2023-06-26T14:59:13;1.10;;;1.10;;
11933;SDS011;6026;48.784;9.198;2023-06-26T15:01:39;1.00;;;1.00;;
11933;SDS011;6026;48.784;9.198;2023-06-26T15:04:05;1.10;;;1.10;;
11933;SDS011;6026;48.784;9.198;2023-06-26T15:06:31;1.00;;;1.00;;
11933;SDS011;6026;48.784;9.198;2023-06-26T15:08:57;1.10;;;1.10;;
11933;SDS011;6026;48.784;9.198;2023-06-26T15:11:23;1.10;;;1.10;;
11933;SDS011;6026;48.784;9.198;2023-06-26T15:13:49;1.08;;;1.08;;